Hlavní strana
METAR-TAF:

METAR-TAF

Letiště :

Lechfeld, Německo

zeměpisná šířka: 48-11N, zeměpisná délka: 010-52E, výška: 555 m

Aktuální stav počasí

Zpráva byla vytvořena před 23 minutami, v 05:20 UTC
Jižní vítr 5 kt
Teplota 0°C
Vlhkost vzduchu 80%
Tlak 1020 hPa
Viditelnost 10 km a více
Skoro jasno ve výšce 36000 ft

METAR: ETSL 190520Z 19005KT 9999 FEW360 M00/M03 Q1020 BLU+BLU+

Čas: 06:43 (05:43 UTC)

Předpověď počasí

Zpráva byla vytvořena před 42 minutami, v 05:01 UTC
Předpověď platná od 19 v 06 UTC do 19 v 15 UTC
Jihojihozápadní vítr 8 kt
Viditelnost 10 km a více
Skoro jasno ve výšce 30000 ft

TAF: ETSL 190501Z 1906/1915 21008KT 9999 NSW FEW300 BY ETGL

Stav a předpovědi počasí z více než 4 000 letišť (zprávy METAR a TAF).

Červené a žluté tečky na mapě představují dostupné meteorologické stanice.

Když kurzor umístíte na tečku, zobrazí se název stanice.

Pak kliknutím zobrazíte stav a předpověď počasí.

Chcete-li změnit mapu, kliknutím na zelené tlačítko se znaménkem +mapu přiblížíte, kliknutím na zelené tlačítko se znaménkem – mapu oddálíte a kliknutím na zelené šipky přejdete na sousední mapy.


METAR-TAF: